Big Sur, CA (93920)

6:24 AM PST on February 19, 2018 (GMT -0800)
MHLPK | | Change Station
Active Advisory: Frost Advisory

Elev 2489 ft 36.07 °N, 121.56 °W | Updated 49 minutes ago

Rain
Rain
33.0 °F
Feels Like 24 °F
N
11.0
Wind Variable Wind from NW
Gusts 17.0 mph

Today
High -- | Low -- °F
--% Chance of Precip.
Yesterday
High -- | Low -- °F
Precip. -- in
Pressure 30.03 in
Visibility 10.0 miles
Clouds Scattered Clouds 3500 ft
Mostly Cloudy 6500 ft
Overcast 8500 ft
Windchill 24 °F
Dew Point 23.0 °F
Humidity 66%
Rainfall 0.05 in
Snow Depth Not available.
6:50 AM 5:52 PM
Waxing Crescent, 14% visible
METAR KMRY 191354Z 29008KT 10SM SCT035 BKN065 OVC085 08/01 A2999 RMK AO2 SLP169 T00780006
Pressure 30.03 in
Visibility 10.0 miles
Clouds Scattered Clouds 3500 ft
Mostly Cloudy 6500 ft
Overcast 8500 ft
Windchill 24 °F
Dew Point 23.0 °F
Humidity 66%
Rainfall 0.05 in
Snow Depth Not available.
6:50 AM 5:52 PM
Waxing Crescent, 14% visible
METAR KMRY 191354Z 29008KT 10SM SCT035 BKN065 OVC085 08/01 A2999 RMK AO2 SLP169 T00780006

Get Your Daily Forecast Email!

Thanks for signing up!

Be on the lookout for a verification email in your inbox.

You'll start receiving severe weather alerts in your inbox..

×

10-Day Weather Forecast

Almanac

Astronomy

Feb. 19, 2018 Rise Set
Actual Time
Civil Twilight
Nautical Twilight
Astronomical Twilight
Moon
Length of Visible Light
Length of Day
Tomorrow will be .
, % of the Moon is Illuminated

Today's Extremes

State Highs State Lows

Community

WunderPhotos

Category 6

Welcome to Category 6. This is the collective home for Weather Underground's featured writeups by Dr. Jeff Masters (right), Bob Henson (left), Chris Burt, and other regular contributors.

Nearby

Air Quality

  Air Quality AQ Index Pollutant
Not available.

Snow Depth

Station Depth Elevation

Earthquake Activity

City Distance Mag. Time & Date
Minimum magnitude displayed is 2.5.

Coastal Water Temperatures

Place Temperature

Stations

Nearby Weather Stations

Station Location Temp. Windchill Dew Point Humidity Wind Precip. Elev Updated Type
                   

Watches & Warnings

Frost Advisory
Issued: 3:50 AM PST Feb. 19, 2018 – National Weather Service

... Frost advisory remains in effect from midnight tonight to 9 am
PST Tuesday...

A frost advisory remains in effect from midnight tonight to 9 am
PST Tuesday.

* Location... all coastal and Bayside areas of the San Francisco
Bay area and Monterey Bay area, except the city of San
Francisco.

* Temperatures... widespread overnight lows from 30 to 35.

* Timing... several hours of temperatures near freezing from late
Monday night through mid morning Tuesday.

* Impacts... frost can damage outdoor vegetation that is very
sensitive to cold. Please check on the elderly and make sure
animals have a warm shelter.

Precautionary/preparedness actions...

A frost advisory means that frost is possible. Sensitive outdoor
plants may be damaged if left uncovered.